createdAt,value
2024-04-21T00:01:31.480Z,8.95
2024-04-21T00:04:03.384Z,10.02
2024-04-21T00:06:33.845Z,8.02
2024-04-21T00:09:04.345Z,10.93
2024-04-21T00:11:34.747Z,6.25
2024-04-21T00:14:05.304Z,15.38
2024-04-21T00:16:35.653Z,10.45
2024-04-21T00:19:06.223Z,7.18
2024-04-21T00:21:36.796Z,14.80
2024-04-21T00:24:07.387Z,8.40
2024-04-21T00:26:37.650Z,7.13
2024-04-21T00:29:09.266Z,8.30
2024-04-21T00:31:41.050Z,10.85
2024-04-21T00:34:11.824Z,32.63
2024-04-21T00:36:45.916Z,5.60
2024-04-21T00:39:16.312Z,11.60
2024-04-21T00:41:46.722Z,7.47
2024-04-21T00:44:17.078Z,7.57
2024-04-21T00:46:47.743Z,5.47
2024-04-21T00:49:18.321Z,7.90
2024-04-21T00:51:49.464Z,7.82
2024-04-21T00:54:20.117Z,8.57
2024-04-21T00:56:51.500Z,7.70
2024-04-21T01:01:52.815Z,5.30
2024-04-21T01:04:24.794Z,5.82
2024-04-21T01:06:55.175Z,8.95
2024-04-21T01:09:25.566Z,6.38
2024-04-21T01:11:55.882Z,6.40
2024-04-21T01:14:26.343Z,14.32
2024-04-21T01:16:56.502Z,5.10
2024-04-21T01:19:26.970Z,7.55
2024-04-21T01:21:57.289Z,12.48
2024-04-21T01:24:27.749Z,10.07
2024-04-21T01:26:58.311Z,11.38
2024-04-21T01:29:28.725Z,6.68
2024-04-21T01:31:58.905Z,15.20
2024-04-21T01:34:29.416Z,17.02
2024-04-21T01:36:59.872Z,17.75
2024-04-21T01:39:30.345Z,22.60
2024-04-21T01:42:00.487Z,16.30
2024-04-21T01:44:30.943Z,17.05
2024-04-21T01:47:01.350Z,15.80
2024-04-21T01:49:31.907Z,20.55
2024-04-21T01:52:02.306Z,17.33
2024-04-21T01:54:32.796Z,13.63
2024-04-21T01:57:03.137Z,11.90
2024-04-21T01:59:33.531Z,12.48
2024-04-21T02:02:03.828Z,19.45
2024-04-21T02:04:35.304Z,19.05
2024-04-21T02:07:07.516Z,25.90
2024-04-21T02:09:38.627Z,14.38
2024-04-21T02:12:09.257Z,12.82
2024-04-21T02:14:39.915Z,18.27
2024-04-21T02:17:10.361Z,17.63
2024-04-21T02:19:40.818Z,16.77
2024-04-21T02:22:11.217Z,15.27
2024-04-21T02:24:45.758Z,16.95
2024-04-21T02:27:16.699Z,10.23
2024-04-21T02:29:47.131Z,10.82
2024-04-21T02:32:17.538Z,10.75
2024-04-21T02:34:48.394Z,13.27
2024-04-21T02:37:18.815Z,14.40
2024-04-21T02:39:49.350Z,8.68
2024-04-21T02:42:20.574Z,8.68
2024-04-21T02:44:50.928Z,9.95
2024-04-21T02:47:21.289Z,13.93
2024-04-21T02:49:52.010Z,10.13
2024-04-21T02:52:22.369Z,14.65
2024-04-21T02:54:52.701Z,7.22
2024-04-21T02:57:23.131Z,4.28
2024-04-21T02:59:53.465Z,4.72
2024-04-21T03:02:23.674Z,5.40
2024-04-21T03:04:55.411Z,13.05
2024-04-21T03:07:25.742Z,6.15
2024-04-21T03:09:56.024Z,6.05
2024-04-21T03:12:26.378Z,8.25
2024-04-21T03:14:56.733Z,7.75
2024-04-21T03:17:27.162Z,6.35
2024-04-21T03:19:57.601Z,15.63
2024-04-21T03:22:27.958Z,10.52
2024-04-21T03:24:58.447Z,11.25
2024-04-21T03:27:28.621Z,14.52
2024-04-21T03:29:59.055Z,24.80
2024-04-21T03:32:29.460Z,14.63
2024-04-21T03:34:59.969Z,5.82
2024-04-21T03:37:30.338Z,12.55
2024-04-21T03:40:02.859Z,6.53
2024-04-21T03:42:33.246Z,7.40
2024-04-21T03:45:03.718Z,10.50
2024-04-21T03:47:34.291Z,11.77
2024-04-21T03:50:04.881Z,13.35
2024-04-21T03:52:35.258Z,10.25
2024-04-21T03:55:05.821Z,21.17
2024-04-21T03:57:36.334Z,14.68
2024-04-21T04:00:07.630Z,19.50
2024-04-21T04:02:38.648Z,20.73
2024-04-21T04:05:10.101Z,17.85
2024-04-21T04:07:40.410Z,17.95
2024-04-21T04:10:10.937Z,10.27
2024-04-21T04:12:47.630Z,21.15
2024-04-21T04:15:19.617Z,11.70
2024-04-21T04:17:50.228Z,7.10
2024-04-21T04:20:20.690Z,14.32
2024-04-21T04:22:51.115Z,16.02
2024-04-21T04:25:21.527Z,14.55
2024-04-21T04:27:51.800Z,9.70
2024-04-21T04:30:22.309Z,6.43
2024-04-21T04:32:52.719Z,7.97
2024-04-21T04:35:23.046Z,12.27
2024-04-21T04:37:55.362Z,10.73
2024-04-21T04:40:26.208Z,18.42
2024-04-21T04:42:56.723Z,11.30
2024-04-21T04:45:27.245Z,12.57
2024-04-21T04:47:57.567Z,9.48
2024-04-21T04:50:27.810Z,11.10
2024-04-21T04:52:59.241Z,16.65
2024-04-21T04:55:29.540Z,11.40
2024-04-21T04:57:59.702Z,9.90
2024-04-21T05:00:30.055Z,15.32
2024-04-21T05:03:00.398Z,10.70
2024-04-21T05:05:31.593Z,17.60
2024-04-21T05:08:01.938Z,15.80
2024-04-21T05:10:32.412Z,8.07
2024-04-21T05:13:02.901Z,9.73
2024-04-21T05:15:33.431Z,14.35
2024-04-21T05:18:03.945Z,17.05
2024-04-21T05:20:34.446Z,14.23
2024-04-21T05:23:04.834Z,12.27
2024-04-21T05:25:35.308Z,9.80
2024-04-21T05:28:05.885Z,19.30
2024-04-21T05:30:36.431Z,12.95
2024-04-21T05:33:07.015Z,11.43
2024-04-21T05:35:37.522Z,9.05
2024-04-21T05:38:07.997Z,12.80
2024-04-21T05:40:38.514Z,8.27
2024-04-21T05:43:08.991Z,9.82
2024-04-21T05:45:39.442Z,9.48
2024-04-21T05:48:10.500Z,8.15
2024-04-21T05:50:45.312Z,11.77
2024-04-21T05:53:15.719Z,20.48
2024-04-21T05:55:46.166Z,21.45
2024-04-21T05:58:16.678Z,35.10
2024-04-21T06:00:47.239Z,35.88
2024-04-21T06:03:17.622Z,29.38
2024-04-21T06:05:48.875Z,36.53
2024-04-21T06:08:19.247Z,35.25
2024-04-21T06:10:49.743Z,42.17
2024-04-21T06:13:20.190Z,27.30
2024-04-21T06:15:50.624Z,28.67
2024-04-21T06:18:20.937Z,28.75
2024-04-21T06:20:51.480Z,35.33
2024-04-21T06:23:21.895Z,31.75
2024-04-21T06:25:52.278Z,25.75
2024-04-21T06:28:22.829Z,25.58
2024-04-21T06:30:53.410Z,34.67
2024-04-21T06:33:23.842Z,19.73
2024-04-21T06:35:54.327Z,24.05
2024-04-21T06:38:24.729Z,14.65
2024-04-21T06:40:55.176Z,26.65
2024-04-21T06:43:25.938Z,26.45
2024-04-21T06:45:56.392Z,22.10
2024-04-21T06:48:26.882Z,13.27
2024-04-21T06:50:57.443Z,16.38
2024-04-21T06:53:27.932Z,16.00
2024-04-21T06:55:58.392Z,22.92
2024-04-21T06:58:28.813Z,17.10
2024-04-21T07:00:59.309Z,19.77
2024-04-21T07:03:29.720Z,20.42
2024-04-21T07:06:00.916Z,10.98
2024-04-21T07:08:31.315Z,14.10
2024-04-21T07:11:02.497Z,22.95
2024-04-21T07:16:02.814Z,18.65
2024-04-21T07:18:33.491Z,18.45
2024-04-21T07:21:06.021Z,21.77
2024-04-21T07:23:36.639Z,20.40
2024-04-21T07:26:07.291Z,17.25
2024-04-21T07:28:37.654Z,27.23
2024-04-21T07:31:08.121Z,19.67
2024-04-21T07:33:38.432Z,28.20
2024-04-21T07:36:08.988Z,22.90
2024-04-21T07:38:39.368Z,27.98
2024-04-21T07:41:09.862Z,23.92
2024-04-21T07:43:40.243Z,22.55
2024-04-21T07:46:10.738Z,24.30
2024-04-21T07:48:41.184Z,19.98
2024-04-21T07:51:13.550Z,17.48
2024-04-21T07:53:45.353Z,21.02
2024-04-21T07:56:15.816Z,14.40
2024-04-21T07:58:46.193Z,13.05
2024-04-21T08:01:16.704Z,15.77
2024-04-21T08:03:46.984Z,18.60
2024-04-21T08:06:18.561Z,15.18
2024-04-21T08:11:28.185Z,12.27
2024-04-21T08:13:58.580Z,17.20
2024-04-21T08:16:29.103Z,23.42
2024-04-21T08:18:59.527Z,9.98
2024-04-21T08:21:29.909Z,22.50
2024-04-21T08:24:00.298Z,14.30
2024-04-21T08:26:31.090Z,17.02
2024-04-21T08:29:01.484Z,11.57
2024-04-21T08:31:31.952Z,12.32
2024-04-21T08:34:02.978Z,17.95
2024-04-21T08:36:33.512Z,13.57
2024-04-21T08:39:04.038Z,15.48
2024-04-21T08:42:01.434Z,13.35
2024-04-21T08:44:33.204Z,18.63
2024-04-21T08:47:06.096Z,13.43
2024-04-21T08:49:36.712Z,14.57
2024-04-21T08:52:12.530Z,17.95
2024-04-21T08:54:43.001Z,12.90
2024-04-21T08:57:15.979Z,16.77
2024-04-21T08:59:46.942Z,17.50
2024-04-21T09:02:17.676Z,9.77
2024-04-21T09:04:48.227Z,11.52
2024-04-21T09:07:21.087Z,12.60
2024-04-21T09:09:51.555Z,11.38
2024-04-21T09:12:22.609Z,13.75
2024-04-21T09:14:53.227Z,13.25
2024-04-21T09:17:23.985Z,13.20
2024-04-21T09:19:55.276Z,13.77
2024-04-21T09:22:25.812Z,11.68
2024-04-21T09:24:56.533Z,13.27
2024-04-21T09:27:31.383Z,14.38
2024-04-21T09:30:03.800Z,10.70
2024-04-21T09:32:36.169Z,6.72
2024-04-21T09:35:07.142Z,6.60
2024-04-21T09:37:37.637Z,8.68
2024-04-21T09:40:08.830Z,10.90
2024-04-21T09:42:39.509Z,18.55
2024-04-21T09:45:11.176Z,11.05
2024-04-21T09:50:14.091Z,7.35
2024-04-21T09:52:49.760Z,4.80
2024-04-21T09:55:22.060Z,8.50
2024-04-21T09:58:02.915Z,6.18
2024-04-21T10:00:34.358Z,6.60
2024-04-21T10:03:07.223Z,3.72
2024-04-21T10:05:38.757Z,10.43
2024-04-21T10:08:10.515Z,7.22
2024-04-21T10:10:42.736Z,7.90
2024-04-21T10:13:13.510Z,4.32
2024-04-21T10:15:45.165Z,7.00
2024-04-21T10:18:26.302Z,9.38
2024-04-21T10:20:56.992Z,6.13
2024-04-21T10:23:27.456Z,7.68
2024-04-21T10:25:57.838Z,9.10
2024-04-21T10:28:30.872Z,10.43
2024-04-21T10:31:11.267Z,9.00
2024-04-21T10:33:45.703Z,5.15
2024-04-21T10:36:22.871Z,5.60
2024-04-21T10:38:57.046Z,4.47
2024-04-21T10:41:27.999Z,4.82
2024-04-21T10:43:58.416Z,3.42
2024-04-21T10:46:32.006Z,4.28
2024-04-21T10:49:02.486Z,8.10
2024-04-21T10:51:36.313Z,3.85
2024-04-21T10:54:10.368Z,4.78
2024-04-21T10:56:40.977Z,5.25
2024-04-21T10:59:11.334Z,3.55
2024-04-21T11:01:41.841Z,3.55
2024-04-21T11:04:12.398Z,5.22
2024-04-21T11:06:42.986Z,4.63
2024-04-21T11:09:14.539Z,3.85
2024-04-21T11:14:14.563Z,2.78
2024-04-21T11:16:52.560Z,4.18
2024-04-21T11:19:23.978Z,4.13
2024-04-21T11:21:54.475Z,8.32
2024-04-21T11:24:25.173Z,6.10
2024-04-21T11:26:55.623Z,3.85
2024-04-21T11:29:26.059Z,3.65
2024-04-21T11:31:56.493Z,3.13
2024-04-21T11:34:42.070Z,4.30
2024-04-21T11:37:22.293Z,6.13
2024-04-21T11:39:52.712Z,4.65
2024-04-21T11:42:23.054Z,5.13
2024-04-21T11:44:53.641Z,3.30
2024-04-21T11:47:24.775Z,3.30
2024-04-21T11:49:56.213Z,6.05
2024-04-21T11:52:26.659Z,3.60
2024-04-21T11:54:57.211Z,4.85
2024-04-21T11:57:27.564Z,4.07
2024-04-21T11:59:58.047Z,10.50
2024-04-21T12:02:29.246Z,3.13
2024-04-21T12:04:59.751Z,4.18
2024-04-21T12:07:30.341Z,3.50
2024-04-21T12:10:01.673Z,5.50
2024-04-21T12:12:32.132Z,3.70
2024-04-21T12:15:03.221Z,5.88
2024-04-21T12:17:33.667Z,3.05
2024-04-21T12:20:04.122Z,2.88
2024-04-21T12:22:34.602Z,7.00
2024-04-21T12:25:05.163Z,3.50
2024-04-21T12:27:35.481Z,6.20
2024-04-21T12:30:07.540Z,3.20
2024-04-21T12:32:38.087Z,3.15
2024-04-21T12:35:08.680Z,3.33
2024-04-21T12:37:39.089Z,4.63
2024-04-21T12:40:09.878Z,2.63
2024-04-21T12:42:40.778Z,4.85
2024-04-21T12:45:11.677Z,10.35
2024-04-21T12:47:42.664Z,5.25
2024-04-21T12:50:13.082Z,4.18
2024-04-21T12:52:44.622Z,3.75
2024-04-21T12:57:44.788Z,3.20
2024-04-21T13:00:16.901Z,5.60
2024-04-21T13:02:47.379Z,4.07
2024-04-21T13:05:18.239Z,4.35
2024-04-21T13:07:48.626Z,3.72
2024-04-21T13:10:19.934Z,4.22
2024-04-21T13:12:50.516Z,8.75
2024-04-21T13:15:20.891Z,5.32
2024-04-21T13:17:52.424Z,11.77
2024-04-21T13:22:54.146Z,3.55
2024-04-21T13:25:24.517Z,11.15
2024-04-21T13:27:54.950Z,7.20
2024-04-21T13:30:25.475Z,6.22
2024-04-21T13:32:56.052Z,5.05
2024-04-21T13:35:26.479Z,5.15
2024-04-21T13:37:56.913Z,5.30
2024-04-21T13:40:27.485Z,5.40
2024-04-21T13:42:57.981Z,6.45
2024-04-21T13:45:28.417Z,6.13
2024-04-21T13:47:58.653Z,4.38
2024-04-21T13:50:29.788Z,5.35
2024-04-21T13:53:00.172Z,5.68
2024-04-21T13:55:30.490Z,9.32
2024-04-21T13:58:00.939Z,6.13
2024-04-21T14:00:31.366Z,6.28
2024-04-21T14:03:01.624Z,5.97
2024-04-21T14:05:32.119Z,2.83
2024-04-21T14:08:02.461Z,3.40
2024-04-21T14:10:33.854Z,2.80
2024-04-21T14:13:04.627Z,5.22
2024-04-21T14:15:35.413Z,7.20
2024-04-21T14:18:06.047Z,2.55
2024-04-21T14:20:36.605Z,3.05
2024-04-21T14:23:07.123Z,4.05
2024-04-21T14:25:37.626Z,2.85
2024-04-21T14:28:08.172Z,7.63
2024-04-21T14:30:38.649Z,2.92
2024-04-21T14:33:09.304Z,2.80
2024-04-21T14:35:40.134Z,4.38
2024-04-21T14:38:10.585Z,3.92
2024-04-21T14:40:41.115Z,2.88
2024-04-21T14:43:13.186Z,6.95
2024-04-21T14:45:50.145Z,3.03
2024-04-21T14:48:21.073Z,2.97
2024-04-21T14:51:01.586Z,3.13
2024-04-21T14:53:32.206Z,4.22
2024-04-21T14:56:06.549Z,4.15
2024-04-21T14:58:36.939Z,3.05
2024-04-21T15:01:07.577Z,3.92
2024-04-21T15:03:38.026Z,3.65
2024-04-21T15:06:08.708Z,6.72
2024-04-21T15:08:39.099Z,3.08
2024-04-21T15:11:11.225Z,5.07
2024-04-21T15:13:41.730Z,3.03
2024-04-21T15:16:12.174Z,4.35
2024-04-21T15:18:42.559Z,4.40
2024-04-21T15:21:13.399Z,5.40
2024-04-21T15:23:43.763Z,6.95
2024-04-21T15:26:14.020Z,10.23
2024-04-21T15:28:44.458Z,4.22
2024-04-21T15:31:15.436Z,4.03
2024-04-21T15:36:16.126Z,5.18
2024-04-21T15:38:46.595Z,5.88
2024-04-21T15:41:16.973Z,3.15
2024-04-21T15:43:47.315Z,6.53
2024-04-21T15:46:17.592Z,4.25
2024-04-21T15:48:48.016Z,5.05
2024-04-21T15:51:23.073Z,5.35
2024-04-21T15:53:53.568Z,4.30
2024-04-21T15:56:24.046Z,2.90
2024-04-21T15:58:54.338Z,5.50
2024-04-21T16:01:25.718Z,7.35
2024-04-21T16:03:56.174Z,4.03
2024-04-21T16:06:26.686Z,4.00
2024-04-21T16:08:57.073Z,7.63
2024-04-21T16:11:28.650Z,5.10
2024-04-21T16:13:59.109Z,7.20
2024-04-21T16:16:29.812Z,4.72
2024-04-21T16:19:00.262Z,5.38
2024-04-21T16:21:30.724Z,4.60
2024-04-21T16:24:01.668Z,6.10
2024-04-21T16:26:32.240Z,3.97
2024-04-21T16:29:02.592Z,4.50
2024-04-21T16:31:33.121Z,5.05
2024-04-21T16:34:03.657Z,5.20
2024-04-21T16:36:34.246Z,12.23
2024-04-21T16:39:04.977Z,7.85
2024-04-21T16:41:35.958Z,4.15
2024-04-21T16:44:06.723Z,9.23
2024-04-21T16:46:40.090Z,4.10
2024-04-21T16:49:10.918Z,5.93
2024-04-21T16:51:41.602Z,12.68
2024-04-21T16:54:12.387Z,4.18
2024-04-21T16:59:18.385Z,5.97
2024-04-21T17:01:49.716Z,2.78
2024-04-21T17:04:20.426Z,5.03
2024-04-21T17:06:53.892Z,5.85
2024-04-21T17:09:24.666Z,7.57
2024-04-21T17:14:27.513Z,6.90
2024-04-21T17:16:58.224Z,3.83
2024-04-21T17:19:30.789Z,5.63
2024-04-21T17:22:01.319Z,4.38
2024-04-21T17:24:31.886Z,3.95
2024-04-21T17:27:02.345Z,9.05
2024-04-21T17:29:32.791Z,5.43
2024-04-21T17:32:03.302Z,5.22
2024-04-21T17:34:33.650Z,6.28
2024-04-21T17:37:04.055Z,6.18
2024-04-21T17:42:04.473Z,7.10
2024-04-21T17:44:34.813Z,6.72
2024-04-21T17:47:05.429Z,3.65
2024-04-21T17:49:35.887Z,3.97
2024-04-21T17:52:07.753Z,11.45
2024-04-21T17:54:43.041Z,3.45
2024-04-21T17:57:18.992Z,3.38
2024-04-21T18:02:21.620Z,4.80
2024-04-21T18:04:54.025Z,3.95
2024-04-21T18:07:27.191Z,2.45
2024-04-21T18:09:59.158Z,2.97
2024-04-21T18:12:32.041Z,5.57
2024-04-21T18:15:02.594Z,2.72
2024-04-21T18:17:33.152Z,6.22
2024-04-21T18:22:33.515Z,3.38
2024-04-21T18:27:33.619Z,4.38
2024-04-21T18:30:04.111Z,3.65
2024-04-21T18:32:34.506Z,3.67
2024-04-21T18:37:34.597Z,3.53
2024-04-21T18:40:07.368Z,3.55
2024-04-21T18:42:37.998Z,3.70
2024-04-21T18:45:09.604Z,3.78
2024-04-21T18:47:40.020Z,9.15
2024-04-21T18:50:10.672Z,7.05
2024-04-21T18:55:10.757Z,2.63
2024-04-21T18:57:41.256Z,4.03
2024-04-21T19:00:12.160Z,2.67
2024-04-21T19:02:42.666Z,3.67
2024-04-21T19:05:13.072Z,3.92
2024-04-21T19:07:43.481Z,4.38
2024-04-21T19:10:14.119Z,5.03
2024-04-21T19:12:45.903Z,4.30
2024-04-21T19:15:16.694Z,3.47
2024-04-21T19:17:47.530Z,4.28
2024-04-21T19:20:18.515Z,4.05
2024-04-21T19:22:49.174Z,2.80
2024-04-21T19:25:19.869Z,3.17
2024-04-21T19:30:20.376Z,2.95
2024-04-21T19:32:50.829Z,5.72
2024-04-21T19:35:21.305Z,3.22
2024-04-21T19:37:51.525Z,3.85
2024-04-21T19:40:21.910Z,7.75
2024-04-21T19:42:52.364Z,3.80
2024-04-21T19:45:22.595Z,2.83
2024-04-21T19:47:53.233Z,2.20
2024-04-21T19:52:53.473Z,5.60
2024-04-21T19:55:23.977Z,3.60
2024-04-21T19:57:54.397Z,4.63
2024-04-21T20:00:24.552Z,10.40
2024-04-21T20:02:54.991Z,4.75
2024-04-21T20:05:25.316Z,3.90
2024-04-21T20:07:55.565Z,3.72
2024-04-21T20:10:26.953Z,3.97
2024-04-21T20:12:58.336Z,7.53
2024-04-21T20:15:46.882Z,10.30
2024-04-21T20:18:37.826Z,6.05
2024-04-21T20:21:09.005Z,4.85
2024-04-21T20:23:39.432Z,2.85
2024-04-21T20:26:15.379Z,4.75
2024-04-21T20:28:45.794Z,3.83
2024-04-21T20:31:21.755Z,3.08
2024-04-21T20:33:52.542Z,4.30
2024-04-21T20:36:48.262Z,4.72
2024-04-21T20:39:18.757Z,14.90
2024-04-21T20:41:49.054Z,12.07
2024-04-21T20:44:19.590Z,11.38
2024-04-21T20:46:50.103Z,3.38
2024-04-21T20:49:20.533Z,8.10
2024-04-21T20:51:50.710Z,4.30
2024-04-21T20:54:21.723Z,9.38
2024-04-21T20:59:23.560Z,10.10
2024-04-21T21:01:54.232Z,7.50
2024-04-21T21:04:24.839Z,11.85
2024-04-21T21:06:55.285Z,3.50
2024-04-21T21:09:25.788Z,5.30
2024-04-21T21:11:56.223Z,9.82
2024-04-21T21:14:32.467Z,7.68
2024-04-21T21:17:02.940Z,10.82
2024-04-21T21:19:33.809Z,7.78
2024-04-21T21:24:34.526Z,12.02
2024-04-21T21:27:05.001Z,10.30
2024-04-21T21:29:35.479Z,19.13
2024-04-21T21:32:05.922Z,8.30
2024-04-21T21:34:36.493Z,19.02
2024-04-21T21:37:07.095Z,14.32
2024-04-21T21:39:37.530Z,13.30
2024-04-21T21:42:08.019Z,13.35
2024-04-21T21:44:38.510Z,12.48
2024-04-21T21:47:09.182Z,19.38
2024-04-21T21:49:39.755Z,16.27
2024-04-21T21:52:10.274Z,7.53
2024-04-21T21:54:40.908Z,12.02
2024-04-21T21:57:11.276Z,7.80
2024-04-21T21:59:41.705Z,10.57
2024-04-21T22:02:12.269Z,10.45
2024-04-21T22:04:42.781Z,8.02
2024-04-21T22:07:13.075Z,9.55
2024-04-21T22:09:43.573Z,10.13
2024-04-21T22:12:14.013Z,10.60
2024-04-21T22:14:45.735Z,10.88
2024-04-21T22:17:16.152Z,10.38
2024-04-21T22:19:48.418Z,7.63
2024-04-21T22:22:18.819Z,12.43
2024-04-21T22:24:49.329Z,14.20
2024-04-21T22:27:19.741Z,14.30
2024-04-21T22:29:50.301Z,10.55
2024-04-21T22:32:20.760Z,18.23
2024-04-21T22:34:55.445Z,17.73
2024-04-21T22:37:25.891Z,16.90
2024-04-21T22:39:56.488Z,14.93
2024-04-21T22:42:28.369Z,12.88
2024-04-21T22:44:58.899Z,11.05
2024-04-21T22:47:31.144Z,9.00
2024-04-21T22:50:02.065Z,21.73
2024-04-21T22:52:32.551Z,26.85
2024-04-21T22:55:03.387Z,19.30
2024-04-21T22:57:34.274Z,19.98
2024-04-21T23:00:04.812Z,17.15
2024-04-21T23:02:35.329Z,19.85
2024-04-21T23:05:05.960Z,20.30
2024-04-21T23:07:36.481Z,15.45
2024-04-21T23:10:07.356Z,12.77
2024-04-21T23:12:37.734Z,13.70
2024-04-21T23:15:10.207Z,20.85
2024-04-21T23:17:40.724Z,12.82
2024-04-21T23:20:11.633Z,9.18
2024-04-21T23:22:42.099Z,11.05
2024-04-21T23:25:12.808Z,12.52
2024-04-21T23:27:43.912Z,14.60
2024-04-21T23:30:14.781Z,11.68
2024-04-21T23:32:45.382Z,12.77
2024-04-21T23:35:15.977Z,16.48
2024-04-21T23:37:46.361Z,19.85
2024-04-21T23:40:16.936Z,15.35
2024-04-21T23:42:47.529Z,10.50
2024-04-21T23:45:18.480Z,14.90
2024-04-21T23:47:50.925Z,14.05
2024-04-21T23:50:21.515Z,17.65
2024-04-21T23:52:51.947Z,22.58
2024-04-21T23:55:22.774Z,10.65
2024-04-21T23:57:53.162Z,13.25
